createdAt,value
2018-12-29T00:01:33.028Z,25.60
2018-12-29T00:04:01.488Z,26.33
2018-12-29T00:06:30.015Z,23.70
2018-12-29T00:08:58.459Z,24.53
2018-12-29T00:11:26.924Z,22.77
2018-12-29T00:13:55.547Z,22.10
2018-12-29T00:16:24.012Z,21.70
2018-12-29T00:18:52.548Z,22.90
2018-12-29T00:21:21.037Z,23.87
2018-12-29T00:23:49.480Z,22.03
2018-12-29T00:26:18.106Z,26.60
2018-12-29T00:28:46.643Z,23.87
2018-12-29T00:31:15.105Z,19.80
2018-12-29T00:33:43.564Z,22.53
2018-12-29T00:36:12.067Z,27.33
2018-12-29T00:38:55.574Z,21.47
2018-12-29T00:41:24.087Z,28.20
2018-12-29T00:43:52.595Z,25.87
2018-12-29T00:46:21.427Z,30.57
2018-12-29T00:48:49.980Z,31.83
2018-12-29T00:51:18.430Z,34.17
2018-12-29T00:53:46.880Z,32.60
2018-12-29T00:56:15.508Z,27.23
2018-12-29T00:58:49.972Z,34.93
2018-12-29T01:01:18.448Z,35.17
2018-12-29T01:03:46.976Z,34.40
2018-12-29T01:06:15.431Z,41.13
2018-12-29T01:08:43.901Z,33.47
2018-12-29T01:11:12.404Z,43.93
2018-12-29T01:13:40.864Z,42.57
2018-12-29T01:16:09.339Z,45.80
2018-12-29T01:18:37.845Z,46.80
2018-12-29T01:21:06.293Z,47.23
2018-12-29T01:23:34.751Z,47.73
2018-12-29T01:26:03.402Z,46.90
2018-12-29T01:28:31.848Z,49.10
2018-12-29T01:31:00.672Z,46.17
2018-12-29T01:33:29.272Z,46.83
2018-12-29T01:35:57.863Z,49.57
2018-12-29T01:38:26.332Z,58.47
2018-12-29T01:40:54.871Z,48.80
2018-12-29T01:43:23.344Z,55.00
2018-12-29T01:45:51.852Z,57.57
2018-12-29T01:48:20.303Z,62.90
2018-12-29T01:50:48.743Z,53.33
2018-12-29T01:53:17.259Z,51.27
2018-12-29T01:55:45.710Z,59.23
2018-12-29T01:58:14.177Z,62.37
2018-12-29T02:00:42.771Z,54.17
2018-12-29T02:03:11.221Z,47.33
2018-12-29T02:05:39.743Z,76.73
2018-12-29T02:08:08.276Z,50.57
2018-12-29T02:10:36.721Z,55.13
2018-12-29T02:13:05.177Z,54.17
2018-12-29T02:15:33.710Z,52.83
2018-12-29T02:18:05.000Z,56.30
2018-12-29T02:20:33.457Z,51.13
2018-12-29T02:23:02.084Z,58.57
2018-12-29T02:25:30.615Z,76.87
2018-12-29T02:27:59.180Z,44.43
2018-12-29T02:30:27.704Z,58.60
2018-12-29T02:32:56.168Z,52.60
2018-12-29T02:35:24.709Z,50.50
2018-12-29T02:37:53.299Z,60.20
2018-12-29T02:40:21.763Z,51.93
2018-12-29T02:42:50.256Z,58.87
2018-12-29T02:45:18.735Z,55.10
2018-12-29T02:47:47.199Z,79.97
2018-12-29T02:50:25.711Z,49.80
2018-12-29T02:52:54.168Z,53.20
2018-12-29T02:55:22.624Z,57.73
2018-12-29T02:57:51.215Z,52.13
2018-12-29T03:00:19.667Z,86.33
2018-12-29T03:02:48.122Z,101.23
2018-12-29T03:05:16.639Z,62.50
2018-12-29T03:07:45.094Z,58.87
2018-12-29T03:10:20.396Z,32.40
2018-12-29T03:12:48.851Z,36.53
2018-12-29T03:15:17.368Z,32.50
2018-12-29T03:17:45.827Z,34.07
2018-12-29T03:20:14.281Z,27.67
2018-12-29T03:23:02.217Z,27.03
2018-12-29T03:25:30.658Z,27.00
2018-12-29T03:27:59.122Z,23.73
2018-12-29T03:30:27.721Z,26.80
2018-12-29T03:32:56.323Z,28.23
2018-12-29T03:35:24.839Z,23.67
2018-12-29T03:37:53.336Z,26.70
2018-12-29T03:40:21.792Z,27.30
2018-12-29T03:43:00.226Z,25.00
2018-12-29T03:45:28.679Z,25.00
2018-12-29T03:47:57.140Z,32.93
2018-12-29T03:50:25.679Z,30.40
2018-12-29T03:53:00.916Z,26.77
2018-12-29T03:55:29.404Z,34.23
2018-12-29T03:57:57.861Z,29.20
2018-12-29T04:00:26.377Z,21.50
2018-12-29T04:02:54.886Z,27.20
2018-12-29T04:05:23.344Z,26.30
2018-12-29T04:07:51.788Z,22.77
2018-12-29T04:10:20.300Z,22.30
2018-12-29T04:12:49.192Z,19.87
2018-12-29T04:15:17.659Z,20.23
2018-12-29T04:17:46.237Z,18.90
2018-12-29T04:20:14.775Z,19.10
2018-12-29T04:22:43.214Z,19.33
2018-12-29T04:25:11.723Z,19.10
2018-12-29T04:27:40.174Z,21.73
2018-12-29T04:30:08.612Z,20.13
2018-12-29T04:32:37.127Z,20.40
2018-12-29T04:35:05.823Z,16.13
2018-12-29T04:37:34.284Z,18.03
2018-12-29T04:40:02.950Z,14.77
2018-12-29T04:42:31.403Z,17.63
2018-12-29T04:44:59.867Z,17.63
2018-12-29T04:47:28.374Z,17.80
2018-12-29T04:49:56.828Z,23.73
2018-12-29T04:52:28.280Z,18.87
2018-12-29T04:54:56.799Z,28.33
2018-12-29T04:57:40.222Z,24.93
2018-12-29T05:00:08.975Z,21.10
2018-12-29T05:02:37.443Z,19.90
2018-12-29T05:05:06.162Z,23.93
2018-12-29T05:07:34.618Z,24.40
2018-12-29T05:10:03.647Z,20.10
2018-12-29T05:12:32.119Z,22.27
2018-12-29T05:15:00.583Z,21.60
2018-12-29T05:17:34.163Z,21.13
2018-12-29T05:20:02.679Z,19.80
2018-12-29T05:22:31.143Z,16.47
2018-12-29T05:24:59.658Z,17.30
2018-12-29T05:27:29.050Z,14.83
2018-12-29T05:29:57.559Z,15.17
2018-12-29T05:32:26.075Z,14.57
2018-12-29T05:34:54.602Z,14.97
2018-12-29T05:37:24.823Z,13.13
2018-12-29T05:39:53.290Z,15.70
2018-12-29T05:42:21.812Z,14.40
2018-12-29T05:44:50.328Z,13.03
2018-12-29T05:47:18.783Z,14.30
2018-12-29T05:49:47.238Z,13.03
2018-12-29T05:52:15.833Z,14.03
2018-12-29T05:54:44.282Z,15.53
2018-12-29T05:57:12.732Z,16.43
2018-12-29T05:59:41.243Z,13.93
2018-12-29T06:02:09.708Z,16.50
2018-12-29T06:04:38.155Z,15.87
2018-12-29T06:07:06.739Z,18.83
2018-12-29T06:09:35.194Z,16.83
2018-12-29T06:12:03.643Z,13.63
2018-12-29T06:14:32.168Z,17.07
2018-12-29T06:17:00.620Z,16.70
2018-12-29T06:19:29.074Z,17.60
2018-12-29T06:21:57.640Z,15.93
2018-12-29T06:24:26.173Z,16.87
2018-12-29T06:26:54.901Z,19.40
2018-12-29T06:29:23.420Z,15.27
2018-12-29T06:31:51.867Z,17.23
2018-12-29T06:34:20.319Z,16.87
2018-12-29T06:36:51.731Z,14.33
2018-12-29T06:39:20.188Z,20.20
2018-12-29T06:41:48.772Z,12.80
2018-12-29T06:44:17.288Z,18.60
2018-12-29T06:46:45.736Z,16.50
2018-12-29T06:49:14.291Z,14.20
2018-12-29T06:51:42.748Z,15.93
2018-12-29T06:54:11.189Z,19.70
2018-12-29T06:56:39.689Z,15.33
2018-12-29T06:59:08.141Z,15.23
2018-12-29T07:01:36.596Z,16.63
2018-12-29T07:04:05.376Z,15.70
2018-12-29T07:06:33.831Z,12.27
2018-12-29T07:09:02.299Z,18.00
2018-12-29T07:11:30.813Z,14.20
2018-12-29T07:13:59.284Z,14.30
2018-12-29T07:16:27.731Z,20.53
2018-12-29T07:18:56.335Z,14.17
2018-12-29T07:21:24.796Z,10.30
2018-12-29T07:23:53.242Z,16.60
2018-12-29T07:26:21.755Z,19.33
2018-12-29T07:28:59.057Z,11.17
2018-12-29T07:31:27.576Z,9.47
2018-12-29T07:33:56.033Z,12.10
2018-12-29T07:36:24.484Z,12.40
2018-12-29T07:38:52.972Z,15.33
2018-12-29T07:41:21.800Z,9.23
2018-12-29T07:43:50.247Z,8.77
2018-12-29T07:46:18.904Z,13.53
2018-12-29T07:48:47.353Z,8.90
2018-12-29T07:51:15.799Z,10.83
2018-12-29T07:53:44.303Z,10.63
2018-12-29T07:56:12.762Z,13.57
2018-12-29T07:58:41.213Z,13.80
2018-12-29T08:01:09.892Z,12.37
2018-12-29T08:03:38.367Z,10.03
2018-12-29T08:06:06.875Z,17.93
2018-12-29T08:08:35.467Z,23.77
2018-12-29T08:11:04.407Z,58.07
2018-12-29T08:13:32.854Z,30.37
2018-12-29T08:16:01.386Z,50.30
2018-12-29T08:18:29.866Z,43.57
2018-12-29T08:20:58.415Z,37.40
2018-12-29T08:23:28.485Z,33.03
2018-12-29T08:25:56.939Z,36.60
2018-12-29T08:28:25.443Z,34.23
2018-12-29T08:30:53.965Z,25.83
2018-12-29T08:33:22.415Z,29.33
2018-12-29T08:35:50.938Z,26.50
2018-12-29T08:38:19.452Z,22.30
2018-12-29T08:40:47.998Z,23.47
2018-12-29T08:43:16.526Z,18.47
2018-12-29T08:45:45.056Z,22.13
2018-12-29T08:48:13.507Z,21.77
2018-12-29T08:50:42.046Z,23.47
2018-12-29T08:53:10.496Z,27.33
2018-12-29T08:55:52.005Z,20.73
2018-12-29T08:58:20.464Z,13.23
2018-12-29T09:00:48.915Z,18.63
2018-12-29T09:03:17.428Z,17.70
2018-12-29T09:05:45.881Z,15.63
2018-12-29T09:08:14.360Z,13.37
2018-12-29T09:10:45.924Z,8.23
2018-12-29T09:13:14.366Z,8.83
2018-12-29T09:15:42.811Z,8.43
2018-12-29T09:18:11.585Z,6.87
2018-12-29T09:20:42.089Z,10.53
2018-12-29T09:23:10.533Z,10.93
2018-12-29T09:25:39.078Z,12.80
2018-12-29T09:28:07.693Z,11.57
2018-12-29T09:30:36.203Z,10.07
2018-12-29T09:33:05.117Z,9.90
2018-12-29T09:35:33.582Z,9.23
2018-12-29T09:38:02.175Z,10.17
2018-12-29T09:40:30.633Z,10.27
2018-12-29T09:42:59.075Z,12.57
2018-12-29T09:45:27.750Z,10.13
2018-12-29T09:47:56.227Z,11.97
2018-12-29T09:50:24.737Z,13.13
2018-12-29T09:52:53.245Z,10.03
2018-12-29T09:55:21.694Z,12.00
2018-12-29T09:57:50.161Z,11.67
2018-12-29T10:00:18.684Z,11.43
2018-12-29T10:02:47.212Z,7.97
2018-12-29T10:05:15.668Z,11.57
2018-12-29T10:07:44.188Z,9.00
2018-12-29T10:10:24.652Z,7.73
2018-12-29T10:12:53.160Z,5.70
2018-12-29T10:15:21.611Z,5.90
2018-12-29T10:17:50.099Z,7.43
2018-12-29T10:20:22.844Z,6.50
2018-12-29T10:22:51.300Z,5.33
2018-12-29T10:25:19.772Z,3.60
2018-12-29T10:27:48.243Z,8.00
2018-12-29T10:30:16.765Z,3.43
2018-12-29T10:32:45.212Z,4.17
2018-12-29T10:35:13.675Z,6.20
2018-12-29T10:37:42.169Z,4.60
2018-12-29T10:40:10.620Z,5.37
2018-12-29T10:42:39.144Z,3.90
2018-12-29T10:45:07.886Z,6.30
2018-12-29T10:47:36.410Z,4.17
2018-12-29T10:50:06.665Z,4.70
2018-12-29T10:52:35.136Z,3.40
2018-12-29T10:55:03.748Z,4.23
2018-12-29T10:57:32.246Z,3.80
2018-12-29T11:00:02.691Z,2.10
2018-12-29T11:02:31.134Z,2.90
2018-12-29T11:04:59.660Z,2.20
2018-12-29T11:07:28.120Z,6.47
2018-12-29T11:09:56.565Z,3.20
2018-12-29T11:12:25.105Z,3.67
2018-12-29T11:14:53.543Z,2.40
2018-12-29T11:17:22.072Z,4.13
2018-12-29T11:19:56.305Z,5.53
2018-12-29T11:22:24.833Z,1.70
2018-12-29T11:24:56.217Z,1.80
2018-12-29T11:27:24.736Z,1.93
2018-12-29T11:29:53.193Z,1.80
2018-12-29T11:32:21.647Z,3.10
2018-12-29T11:34:50.165Z,1.47
2018-12-29T11:37:18.623Z,1.90
2018-12-29T11:39:47.076Z,1.10
2018-12-29T11:42:15.573Z,7.00
2018-12-29T11:44:44.056Z,0.90
2018-12-29T11:47:12.585Z,1.03
2018-12-29T11:49:41.066Z,1.10
2018-12-29T11:52:36.149Z,1.00
2018-12-29T11:55:05.441Z,1.50
2018-12-29T11:57:34.058Z,2.17
2018-12-29T12:00:02.678Z,1.80
2018-12-29T12:02:31.417Z,1.70
2018-12-29T12:05:00.026Z,1.90
2018-12-29T12:07:28.549Z,2.87
2018-12-29T12:09:57.077Z,2.60
2018-12-29T12:12:25.670Z,3.00
2018-12-29T12:14:54.401Z,3.20
2018-12-29T12:17:22.923Z,4.30
2018-12-29T12:20:00.576Z,3.77
2018-12-29T12:22:29.220Z,3.40
2018-12-29T12:24:58.032Z,4.63
2018-12-29T12:27:26.584Z,6.17
2018-12-29T12:29:55.417Z,3.73
2018-12-29T12:32:23.947Z,3.70
2018-12-29T12:34:52.943Z,5.10
2018-12-29T12:37:21.470Z,3.97
2018-12-29T12:39:50.539Z,3.17
2018-12-29T12:42:19.100Z,3.07
2018-12-29T12:44:47.628Z,2.83
2018-12-29T12:47:16.311Z,2.50
2018-12-29T12:49:44.899Z,2.73
2018-12-29T12:52:13.425Z,2.47
2018-12-29T12:54:43.334Z,2.63
2018-12-29T12:57:12.196Z,2.30
2018-12-29T12:59:41.137Z,3.27
2018-12-29T13:02:09.720Z,2.33
2018-12-29T13:04:38.596Z,2.27
2018-12-29T13:07:07.747Z,2.50
2018-12-29T13:09:48.694Z,2.10
2018-12-29T13:12:17.222Z,2.40
2018-12-29T13:14:45.742Z,3.43
2018-12-29T13:17:14.435Z,2.10
2018-12-29T13:19:42.964Z,2.47
2018-12-29T13:22:11.494Z,3.23
2018-12-29T13:24:40.077Z,2.90
2018-12-29T13:27:08.772Z,3.67
2018-12-29T13:29:37.871Z,4.57
2018-12-29T13:32:06.414Z,4.70
2018-12-29T13:34:34.911Z,2.50
2018-12-29T13:37:03.425Z,2.83
2018-12-29T13:39:32.071Z,3.27
2018-12-29T13:42:00.684Z,3.63
2018-12-29T13:44:29.219Z,3.63
2018-12-29T13:46:57.739Z,4.53
2018-12-29T13:49:26.452Z,3.93
2018-12-29T13:51:55.267Z,5.00
2018-12-29T13:54:24.732Z,4.33
2018-12-29T13:56:53.396Z,3.77
2018-12-29T13:59:33.654Z,3.73
2018-12-29T14:02:02.386Z,2.27
2018-12-29T14:04:30.930Z,2.70
2018-12-29T14:06:59.546Z,2.50
2018-12-29T14:09:28.132Z,1.97
2018-12-29T14:11:56.662Z,2.20
2018-12-29T14:14:25.527Z,2.60
2018-12-29T14:16:54.164Z,2.13
2018-12-29T14:19:22.625Z,2.40
2018-12-29T14:21:51.355Z,2.50
2018-12-29T14:24:19.908Z,2.30
2018-12-29T14:26:48.607Z,2.00
2018-12-29T14:29:17.131Z,2.00
2018-12-29T14:31:45.651Z,2.03
2018-12-29T14:34:14.185Z,2.13
2018-12-29T14:36:42.780Z,1.80
2018-12-29T14:39:11.697Z,1.80
2018-12-29T14:41:40.211Z,2.50
2018-12-29T14:44:08.796Z,2.00
2018-12-29T14:46:37.338Z,2.00
2018-12-29T14:49:05.852Z,1.93
2018-12-29T14:51:34.446Z,1.90
2018-12-29T14:54:02.983Z,2.30
2018-12-29T14:56:31.677Z,1.90
2018-12-29T14:59:00.252Z,4.03
2018-12-29T15:01:28.779Z,2.20
2018-12-29T15:03:57.236Z,1.93
2018-12-29T15:06:25.809Z,2.37
2018-12-29T15:08:54.438Z,2.30
2018-12-29T15:11:22.978Z,2.27
2018-12-29T15:13:51.571Z,2.27
2018-12-29T15:16:20.118Z,5.53
2018-12-29T15:18:48.644Z,2.00
2018-12-29T15:21:17.227Z,2.17
2018-12-29T15:23:45.692Z,2.70
2018-12-29T15:26:14.507Z,3.67
2018-12-29T15:28:43.103Z,2.50
2018-12-29T15:31:11.621Z,5.97
2018-12-29T15:33:40.448Z,3.57
2018-12-29T15:36:15.856Z,3.27
2018-12-29T15:38:39.388Z,2.80
2018-12-29T15:41:08.127Z,3.53
2018-12-29T15:43:36.732Z,5.17
2018-12-29T15:46:06.523Z,5.53
2018-12-29T15:48:54.419Z,2.80
2018-12-29T15:51:23.399Z,3.57
2018-12-29T15:53:51.939Z,5.80
2018-12-29T15:56:20.829Z,8.67
2018-12-29T15:58:49.374Z,10.13
2018-12-29T16:01:18.277Z,4.90
2018-12-29T16:03:46.863Z,4.83
2018-12-29T16:06:15.405Z,8.33
2018-12-29T16:08:44.014Z,11.50
2018-12-29T16:11:12.876Z,9.43
2018-12-29T16:13:41.783Z,10.97
2018-12-29T16:16:10.321Z,10.27
2018-12-29T16:18:38.954Z,10.53
2018-12-29T16:21:07.466Z,6.83
2018-12-29T16:23:36.017Z,6.77
2018-12-29T16:26:04.694Z,6.30
2018-12-29T16:28:35.740Z,6.80
2018-12-29T16:31:04.796Z,6.90
2018-12-29T16:33:33.716Z,4.53
2018-12-29T16:36:02.537Z,3.77
2018-12-29T16:38:31.056Z,5.70
2018-12-29T16:41:00.049Z,6.00
2018-12-29T16:43:28.571Z,4.60
2018-12-29T16:45:57.095Z,5.50
2018-12-29T16:48:25.692Z,6.20
2018-12-29T16:50:54.672Z,9.27
2018-12-29T16:53:29.175Z,9.70
2018-12-29T16:55:53.384Z,7.63
2018-12-29T16:58:22.037Z,10.27
2018-12-29T17:00:50.861Z,8.20
2018-12-29T17:03:19.482Z,8.30
2018-12-29T17:05:48.031Z,10.50
2018-12-29T17:08:16.572Z,10.30
2018-12-29T17:10:45.458Z,11.57
2018-12-29T17:13:13.996Z,12.13
2018-12-29T17:15:42.524Z,15.80
2018-12-29T17:18:11.530Z,18.50
2018-12-29T17:20:39.993Z,13.57
2018-12-29T17:23:09.051Z,16.07
2018-12-29T17:25:38.206Z,24.63
2018-12-29T17:28:06.868Z,18.13
2018-12-29T17:30:35.487Z,17.53
2018-12-29T17:33:04.325Z,16.60
2018-12-29T17:35:33.411Z,17.13
2018-12-29T17:38:01.968Z,16.67
2018-12-29T17:40:30.736Z,16.37
2018-12-29T17:42:59.474Z,20.23
2018-12-29T17:45:27.983Z,16.40
2018-12-29T17:47:56.996Z,21.93
2018-12-29T17:50:25.950Z,21.03
2018-12-29T17:52:54.478Z,19.13
2018-12-29T17:55:23.080Z,16.30
2018-12-29T17:57:52.008Z,16.27
2018-12-29T18:00:21.094Z,18.03
2018-12-29T18:02:49.681Z,17.60
2018-12-29T18:05:18.213Z,18.83
2018-12-29T18:07:46.848Z,16.87
2018-12-29T18:10:15.964Z,19.73
2018-12-29T18:12:44.518Z,21.87
2018-12-29T18:15:13.047Z,24.17
2018-12-29T18:17:41.960Z,20.97
2018-12-29T18:20:10.544Z,26.47
2018-12-29T18:22:39.088Z,22.00
2018-12-29T18:25:07.763Z,19.10
2018-12-29T18:27:36.296Z,22.57
2018-12-29T18:30:05.676Z,17.43
2018-12-29T18:32:34.268Z,14.00
2018-12-29T18:35:02.818Z,15.97
2018-12-29T18:37:31.358Z,19.53
2018-12-29T18:40:00.343Z,15.33
2018-12-29T18:42:28.884Z,17.53
2018-12-29T18:44:57.437Z,17.47
2018-12-29T18:47:26.189Z,17.63
2018-12-29T18:49:54.728Z,14.30
2018-12-29T18:52:23.605Z,15.03
2018-12-29T18:54:52.161Z,20.43
2018-12-29T18:57:20.691Z,16.60
2018-12-29T18:59:49.287Z,20.13
2018-12-29T19:02:17.893Z,23.13
